Terminal Aerodrome Forecast
Issued by NWS Jackson, MS

Current Version | Previous Version | Text Only | Print | Product List | Glossary On
Versions: 1 2 3 4 5 6 7 8 9 10 11 12 13 14 15 16 17
000
FTUS44 KJAN 281720
TAFJAN
TAF
KJAN 281720Z 2818/2918 14003KT P6SM SCT040 BKN060
     FM290900 14003KT P6SM OVC025
     FM291200 15005KT P6SM OVC050
     FM291500 16010KT P6SM BKN025=

USA.gov is the U.S. government's official web portal to all federal, state and local government web resources and services.